createdAt,value
2019-05-02T00:02:07.016Z,24.37
2019-05-02T00:04:36.518Z,24.13
2019-05-02T00:07:14.377Z,24.63
2019-05-02T00:09:48.510Z,25.97
2019-05-02T00:12:16.047Z,25.23
2019-05-02T00:14:45.429Z,26.23
2019-05-02T00:17:15.301Z,24.60
2019-05-02T00:19:45.127Z,25.63
2019-05-02T00:22:17.474Z,24.03
2019-05-02T00:24:47.623Z,25.40
2019-05-02T00:27:17.995Z,24.23
2019-05-02T00:29:47.419Z,25.30
2019-05-02T00:32:18.242Z,24.73
2019-05-02T00:34:47.832Z,26.87
2019-05-02T00:37:18.920Z,26.53
2019-05-02T00:39:49.224Z,25.87
2019-05-02T00:42:22.512Z,25.70
2019-05-02T00:44:50.188Z,26.63
2019-05-02T00:47:27.055Z,24.80
2019-05-02T00:49:56.384Z,25.83
2019-05-02T00:52:26.663Z,25.53
2019-05-02T00:54:58.717Z,24.23
2019-05-02T00:57:28.060Z,24.43
2019-05-02T00:59:57.385Z,24.27
2019-05-02T01:02:28.384Z,24.97
2019-05-02T01:04:59.340Z,25.90
2019-05-02T01:07:28.759Z,25.00
2019-05-02T01:09:58.120Z,26.60
2019-05-02T01:12:29.413Z,24.20
2019-05-02T01:15:02.965Z,24.50
2019-05-02T01:17:32.261Z,24.77
2019-05-02T01:20:01.798Z,24.63
2019-05-02T01:22:31.209Z,24.83
2019-05-02T01:25:01.494Z,24.53
2019-05-02T01:27:47.638Z,25.30
2019-05-02T01:30:37.125Z,26.27
2019-05-02T01:33:16.956Z,25.37
2019-05-02T01:35:54.901Z,25.63
2019-05-02T01:38:26.381Z,25.83
2019-05-02T01:40:56.883Z,25.43
2019-05-02T01:43:31.126Z,25.70
2019-05-02T01:46:00.439Z,25.63
2019-05-02T01:48:29.763Z,24.93
2019-05-02T01:50:59.076Z,25.77
2019-05-02T01:53:34.058Z,24.87
2019-05-02T01:55:59.497Z,24.80
2019-05-02T01:58:28.795Z,25.77
2019-05-02T02:00:58.111Z,26.63
2019-05-02T02:03:27.439Z,25.53
2019-05-02T02:05:56.812Z,24.73
2019-05-02T02:08:27.513Z,24.73
2019-05-02T02:10:58.200Z,26.50
2019-05-02T02:13:31.277Z,25.43
2019-05-02T02:16:00.183Z,25.00
2019-05-02T02:18:31.500Z,25.87
2019-05-02T02:21:08.700Z,24.53
2019-05-02T02:23:39.780Z,24.27
2019-05-02T02:26:13.903Z,24.10
2019-05-02T02:28:44.025Z,24.50
2019-05-02T02:31:13.443Z,24.40
2019-05-02T02:33:48.036Z,24.13
2019-05-02T02:36:13.765Z,22.50
2019-05-02T02:38:43.078Z,23.80
2019-05-02T02:41:13.346Z,23.67
2019-05-02T02:43:45.591Z,25.07
2019-05-02T02:46:16.556Z,24.37
2019-05-02T02:48:45.861Z,23.00
2019-05-02T02:51:23.816Z,24.70
2019-05-02T02:53:46.223Z,23.73
2019-05-02T02:56:15.527Z,24.53
2019-05-02T02:58:47.583Z,23.40
2019-05-02T03:01:27.344Z,23.83
2019-05-02T03:03:46.854Z,23.93
2019-05-02T03:06:16.171Z,23.97
2019-05-02T03:08:48.910Z,23.23
2019-05-02T03:11:23.590Z,23.90
2019-05-02T03:13:53.020Z,23.37
2019-05-02T03:16:46.149Z,23.70
2019-05-02T03:19:06.041Z,24.27
2019-05-02T03:21:35.430Z,24.80
2019-05-02T03:24:05.876Z,23.93
2019-05-02T03:26:36.335Z,24.90
2019-05-02T03:29:05.649Z,24.53
2019-05-02T03:31:34.978Z,23.90
2019-05-02T03:34:04.822Z,23.83
2019-05-02T03:36:36.059Z,24.00
2019-05-02T03:39:14.619Z,24.10
2019-05-02T03:41:38.150Z,23.77
2019-05-02T03:44:12.363Z,24.03
2019-05-02T03:46:39.770Z,24.00
2019-05-02T03:49:10.146Z,23.27
2019-05-02T03:51:39.524Z,24.10
2019-05-02T03:54:10.338Z,24.47
2019-05-02T03:56:44.849Z,23.93
2019-05-02T03:59:11.245Z,23.53
2019-05-02T04:01:41.207Z,23.60
2019-05-02T04:04:14.283Z,23.43
2019-05-02T04:06:43.401Z,24.40
2019-05-02T04:09:21.500Z,24.77
2019-05-02T04:11:50.827Z,24.00
2019-05-02T04:14:36.820Z,23.90
2019-05-02T04:16:55.234Z,24.50
2019-05-02T04:19:22.287Z,23.07
2019-05-02T04:21:54.858Z,24.57
2019-05-02T04:24:23.919Z,25.37
2019-05-02T04:26:56.257Z,25.07
2019-05-02T04:29:31.016Z,25.30
2019-05-02T04:31:55.522Z,28.00
2019-05-02T04:34:24.894Z,26.07
2019-05-02T04:37:01.171Z,26.77
2019-05-02T04:39:28.446Z,27.60
2019-05-02T04:41:58.680Z,30.07
2019-05-02T04:44:29.839Z,28.20
2019-05-02T04:46:59.708Z,28.37
2019-05-02T04:49:35.361Z,28.77
2019-05-02T04:52:06.979Z,29.87
2019-05-02T04:54:32.577Z,30.10
2019-05-02T04:57:02.715Z,30.73
2019-05-02T04:59:33.222Z,30.97
2019-05-02T05:02:03.014Z,31.10
2019-05-02T05:04:41.943Z,31.17
2019-05-02T05:07:03.422Z,31.70
2019-05-02T05:09:32.723Z,29.83
2019-05-02T05:12:02.732Z,29.53
2019-05-02T05:14:39.204Z,29.50
2019-05-02T05:17:03.272Z,29.50
2019-05-02T05:19:32.952Z,29.67
2019-05-02T05:22:04.969Z,31.30
2019-05-02T05:24:42.144Z,29.87
2019-05-02T05:27:13.378Z,30.40
2019-05-02T05:29:45.916Z,30.00
2019-05-02T05:32:14.307Z,29.87
2019-05-02T05:34:43.671Z,30.03
2019-05-02T05:37:13.557Z,28.83
2019-05-02T05:39:47.947Z,30.00
2019-05-02T05:42:30.095Z,30.10
2019-05-02T05:44:58.308Z,28.93
2019-05-02T05:47:27.801Z,29.27
2019-05-02T05:50:01.007Z,28.57
2019-05-02T05:52:32.944Z,28.50
2019-05-02T05:55:00.101Z,29.07
2019-05-02T05:57:29.419Z,29.03
2019-05-02T06:00:03.719Z,28.80
2019-05-02T06:02:29.761Z,28.20
2019-05-02T06:05:02.262Z,28.60
2019-05-02T06:07:33.641Z,27.40
2019-05-02T06:10:02.389Z,27.93
2019-05-02T06:12:35.505Z,26.80
2019-05-02T06:15:03.824Z,26.53
2019-05-02T06:17:34.347Z,27.43
2019-05-02T06:20:05.795Z,26.87
2019-05-02T06:22:35.112Z,27.67
2019-05-02T06:25:09.792Z,26.27
2019-05-02T06:27:39.203Z,28.87
2019-05-02T06:30:09.176Z,28.23
2019-05-02T06:32:38.601Z,28.70
2019-05-02T06:35:08.073Z,28.77
2019-05-02T06:37:40.323Z,28.23
2019-05-02T06:40:09.423Z,28.23
2019-05-02T06:42:39.936Z,27.90
2019-05-02T06:45:09.897Z,28.50
2019-05-02T06:47:41.699Z,27.47
2019-05-02T06:50:10.244Z,28.20
2019-05-02T06:52:39.573Z,27.07
2019-05-02T06:55:09.326Z,27.63
2019-05-02T06:57:38.649Z,27.43
2019-05-02T07:00:10.061Z,28.20
2019-05-02T07:02:39.461Z,28.03
2019-05-02T07:05:09.648Z,28.07
2019-05-02T07:07:38.976Z,27.27
2019-05-02T07:10:09.107Z,26.07
2019-05-02T07:12:39.458Z,26.93
2019-05-02T07:15:15.775Z,26.47
2019-05-02T07:17:47.828Z,25.97
2019-05-02T07:20:17.211Z,29.27
2019-05-02T07:22:46.536Z,27.90
2019-05-02T07:25:17.860Z,27.23
2019-05-02T07:27:47.262Z,27.97
2019-05-02T07:30:16.762Z,27.93
2019-05-02T07:32:46.066Z,27.67
2019-05-02T07:35:19.163Z,29.53
2019-05-02T07:37:48.842Z,28.00
2019-05-02T07:40:18.858Z,27.43
2019-05-02T07:42:48.269Z,26.90
2019-05-02T07:45:17.925Z,28.50
2019-05-02T07:47:48.313Z,28.33
2019-05-02T07:50:17.800Z,29.73
2019-05-02T07:52:47.127Z,28.37
2019-05-02T07:55:17.508Z,26.63
2019-05-02T07:57:46.816Z,27.23
2019-05-02T08:00:17.646Z,27.90
2019-05-02T08:02:46.987Z,27.53
2019-05-02T08:05:21.712Z,25.73
2019-05-02T08:07:53.222Z,27.17
2019-05-02T08:10:22.054Z,27.70
2019-05-02T08:12:50.345Z,28.83
2019-05-02T08:15:19.666Z,27.93
2019-05-02T08:17:53.360Z,28.70
2019-05-02T08:20:21.287Z,30.07
2019-05-02T08:22:50.921Z,28.47
2019-05-02T08:25:20.552Z,30.40
2019-05-02T08:27:51.504Z,29.17
2019-05-02T08:30:22.716Z,30.23
2019-05-02T08:32:52.020Z,29.63
2019-05-02T08:35:21.348Z,27.60
2019-05-02T08:37:50.676Z,28.63
2019-05-02T08:40:20.001Z,28.20
2019-05-02T08:42:49.312Z,27.13
2019-05-02T08:45:18.702Z,27.87
2019-05-02T08:47:49.013Z,26.30
2019-05-02T08:50:18.399Z,26.73
2019-05-02T08:52:48.121Z,27.07
2019-05-02T08:55:17.617Z,26.20
2019-05-02T08:57:46.919Z,25.07
2019-05-02T09:00:16.511Z,25.93
2019-05-02T09:02:45.823Z,24.27
2019-05-02T09:05:15.131Z,24.13
2019-05-02T09:07:44.458Z,25.00
2019-05-02T09:10:14.838Z,24.43
2019-05-02T09:12:45.570Z,23.70
2019-05-02T09:15:15.398Z,24.87
2019-05-02T09:17:51.748Z,21.57
2019-05-02T09:20:20.798Z,22.37
2019-05-02T09:22:54.047Z,24.27
2019-05-02T09:25:22.158Z,24.97
2019-05-02T09:27:52.767Z,24.37
2019-05-02T09:30:25.700Z,22.87
2019-05-02T09:32:57.122Z,23.17
2019-05-02T09:35:24.371Z,23.90
2019-05-02T09:37:54.658Z,24.43
2019-05-02T09:40:23.978Z,24.73
2019-05-02T09:42:58.472Z,23.57
2019-05-02T09:45:27.680Z,25.03
2019-05-02T09:48:04.508Z,23.87
2019-05-02T09:50:31.342Z,24.80
2019-05-02T09:52:59.002Z,22.83
2019-05-02T09:55:28.348Z,23.27
2019-05-02T09:57:57.673Z,23.43
2019-05-02T10:00:36.457Z,22.80
2019-05-02T10:03:06.225Z,22.97
2019-05-02T10:05:35.563Z,23.63
2019-05-02T10:08:07.276Z,23.03
2019-05-02T10:10:37.117Z,23.30
2019-05-02T10:13:07.320Z,23.83
2019-05-02T10:15:36.655Z,23.97
2019-05-02T10:18:11.043Z,22.70
2019-05-02T10:20:37.345Z,23.87
2019-05-02T10:23:06.663Z,25.47
2019-05-02T10:25:42.565Z,24.63
2019-05-02T10:28:09.978Z,24.33
2019-05-02T10:30:38.310Z,25.33
2019-05-02T10:33:07.734Z,26.40
2019-05-02T10:35:43.354Z,25.63
2019-05-02T10:38:17.993Z,27.77
2019-05-02T10:40:48.308Z,26.03
2019-05-02T10:43:15.607Z,26.63
2019-05-02T10:45:47.430Z,27.27
2019-05-02T10:48:25.853Z,25.90
2019-05-02T10:50:52.313Z,25.87
2019-05-02T10:53:21.944Z,25.50
2019-05-02T10:55:52.276Z,27.55
2019-05-02T10:58:26.237Z,26.65
2019-05-02T11:00:52.943Z,25.82
2019-05-02T11:03:43.719Z,27.22
2019-05-02T11:06:10.116Z,26.73
2019-05-02T11:08:42.119Z,27.90
2019-05-02T11:11:12.557Z,26.20
2019-05-02T11:13:46.121Z,27.77
2019-05-02T11:16:25.021Z,27.23
2019-05-02T11:18:55.963Z,29.07
2019-05-02T11:21:25.359Z,28.17
2019-05-02T11:23:54.808Z,28.23
2019-05-02T11:26:25.413Z,28.37
2019-05-02T11:28:54.815Z,28.67
2019-05-02T11:31:24.240Z,29.10
2019-05-02T11:33:53.612Z,28.38
2019-05-02T11:36:22.979Z,26.85
2019-05-02T11:39:00.508Z,28.87
2019-05-02T11:41:24.271Z,29.37
2019-05-02T11:43:55.776Z,28.63
2019-05-02T11:46:24.615Z,28.67
2019-05-02T11:48:58.083Z,27.83
2019-05-02T11:51:26.138Z,28.87
2019-05-02T11:53:59.457Z,28.60
2019-05-02T11:56:27.398Z,27.67
2019-05-02T11:58:56.727Z,28.27
2019-05-02T12:01:35.555Z,27.67
2019-05-02T12:03:57.396Z,27.23
2019-05-02T12:06:26.707Z,27.20
2019-05-02T12:08:56.060Z,27.97
2019-05-02T12:11:26.899Z,27.03
2019-05-02T12:13:59.196Z,26.77
2019-05-02T12:16:28.507Z,25.13
2019-05-02T12:19:08.476Z,24.50
2019-05-02T12:21:28.882Z,25.87
2019-05-02T12:23:58.191Z,25.33
2019-05-02T12:26:27.591Z,24.33
2019-05-02T12:28:56.911Z,25.13
2019-05-02T12:31:32.152Z,24.83
2019-05-02T12:34:03.720Z,23.90
2019-05-02T12:36:33.473Z,24.50
2019-05-02T12:39:04.768Z,23.53
2019-05-02T12:41:34.259Z,24.40
2019-05-02T12:44:05.931Z,24.40
2019-05-02T12:46:35.276Z,23.10
2019-05-02T12:49:04.608Z,24.13
2019-05-02T12:51:35.916Z,24.17
2019-05-02T12:54:05.391Z,24.33
2019-05-02T12:56:34.743Z,23.83
2019-05-02T12:59:04.137Z,23.50
2019-05-02T13:01:33.487Z,24.63
2019-05-02T13:04:04.625Z,23.67
2019-05-02T13:06:36.963Z,25.70
2019-05-02T13:09:08.088Z,25.40
2019-05-02T13:11:45.913Z,23.77
2019-05-02T13:14:19.645Z,24.60
2019-05-02T13:16:53.467Z,25.03
2019-05-02T13:19:22.344Z,24.07
2019-05-02T13:22:05.580Z,25.30
2019-05-02T13:24:36.607Z,25.63
2019-05-02T13:27:08.199Z,24.40
2019-05-02T13:29:37.813Z,24.53
2019-05-02T13:32:14.336Z,23.53
2019-05-02T13:34:48.556Z,25.70
2019-05-02T13:37:18.350Z,25.57
2019-05-02T13:40:02.561Z,25.30
2019-05-02T13:42:33.673Z,25.83
2019-05-02T13:45:17.480Z,26.57
2019-05-02T13:47:48.784Z,24.97
2019-05-02T13:50:18.241Z,25.70
2019-05-02T13:52:53.155Z,24.07
2019-05-02T13:55:20.293Z,24.63
2019-05-02T13:57:49.623Z,24.87
2019-05-02T14:00:24.424Z,27.00
2019-05-02T14:02:53.821Z,28.80
2019-05-02T14:05:24.100Z,31.17
2019-05-02T14:08:12.260Z,31.00
2019-05-02T14:10:43.369Z,31.70
2019-05-02T14:13:12.716Z,32.40
2019-05-02T14:15:43.919Z,30.93
2019-05-02T14:18:13.241Z,33.47
2019-05-02T14:20:42.879Z,34.07
2019-05-02T14:23:12.269Z,35.07
2019-05-02T14:25:42.743Z,32.97
2019-05-02T14:28:12.917Z,33.57
2019-05-02T14:30:46.287Z,33.90
2019-05-02T14:33:23.423Z,36.13
2019-05-02T14:35:52.889Z,35.33
2019-05-02T14:38:22.225Z,36.87
2019-05-02T14:41:05.508Z,36.30
2019-05-02T14:43:53.342Z,36.53
2019-05-02T14:46:28.728Z,36.87
2019-05-02T14:48:55.342Z,35.60
2019-05-02T14:51:27.620Z,35.17
2019-05-02T14:53:57.476Z,34.60
2019-05-02T14:56:28.340Z,34.33
2019-05-02T14:58:58.589Z,36.03
2019-05-02T15:01:27.897Z,35.20
2019-05-02T15:03:58.335Z,36.20
2019-05-02T15:06:33.368Z,36.37
2019-05-02T15:09:02.443Z,36.17
2019-05-02T15:11:34.872Z,37.67
2019-05-02T15:14:04.459Z,37.60
2019-05-02T15:16:42.320Z,35.20
2019-05-02T15:19:04.793Z,36.77
2019-05-02T15:21:35.744Z,37.53
2019-05-02T15:24:05.069Z,38.00
2019-05-02T15:26:35.623Z,39.27
2019-05-02T15:29:06.553Z,40.13
2019-05-02T15:31:49.565Z,40.77
2019-05-02T15:34:23.227Z,39.77
2019-05-02T15:36:52.769Z,39.73
2019-05-02T15:41:53.155Z,38.47
2019-05-02T15:44:23.584Z,40.60
2019-05-02T15:46:53.504Z,39.70
2019-05-02T15:49:22.823Z,40.47
2019-05-02T15:51:53.203Z,41.77
2019-05-02T15:54:22.770Z,40.30
2019-05-02T15:57:03.663Z,38.50
2019-05-02T15:59:43.255Z,40.57
2019-05-02T16:02:12.789Z,40.87
2019-05-02T16:04:42.857Z,41.33
2019-05-02T16:07:12.447Z,43.57
2019-05-02T16:09:41.834Z,44.13
2019-05-02T16:12:12.401Z,42.17
2019-05-02T16:14:42.572Z,42.10
2019-05-02T16:17:17.648Z,42.93
2019-05-02T16:19:45.622Z,44.57
2019-05-02T16:22:52.476Z,43.47
2019-05-02T16:25:40.307Z,44.23
2019-05-02T16:28:18.558Z,44.93
2019-05-02T16:33:44.829Z,43.17
2019-05-02T16:36:37.283Z,45.67
2019-05-02T16:39:21.916Z,43.60
2019-05-02T16:42:08.052Z,45.77
2019-05-02T16:44:55.164Z,46.40
2019-05-02T16:47:25.460Z,47.43
2019-05-02T16:49:56.483Z,46.30
2019-05-02T16:52:26.080Z,47.83
2019-05-02T16:54:55.472Z,48.40
2019-05-02T16:57:24.783Z,47.90
2019-05-02T17:00:01.473Z,49.53
2019-05-02T17:02:26.103Z,48.07
2019-05-02T17:05:00.188Z,49.87
2019-05-02T17:07:34.973Z,50.43
2019-05-02T17:10:08.486Z,50.37
2019-05-02T17:12:36.930Z,49.90
2019-05-02T17:15:31.344Z,49.20
2019-05-02T17:17:58.489Z,50.67
2019-05-02T17:20:27.884Z,48.23
2019-05-02T17:23:02.583Z,50.27
2019-05-02T17:25:28.232Z,50.33
2019-05-02T17:28:02.483Z,47.40
2019-05-02T17:30:33.645Z,48.73
2019-05-02T17:33:01.756Z,50.07
2019-05-02T17:35:32.435Z,47.00
2019-05-02T17:38:02.618Z,47.40
2019-05-02T17:40:32.076Z,46.87
2019-05-02T17:43:05.111Z,45.83
2019-05-02T17:45:33.528Z,44.80
2019-05-02T17:48:08.390Z,46.57
2019-05-02T17:50:49.487Z,46.47
2019-05-02T17:53:16.169Z,44.53
2019-05-02T17:55:45.494Z,43.90
2019-05-02T17:58:16.699Z,43.83
2019-05-02T18:00:52.313Z,44.30
2019-05-02T18:03:24.093Z,42.30
2019-05-02T18:05:53.397Z,41.73
2019-05-02T18:08:22.715Z,40.67
2019-05-02T18:10:58.823Z,38.00
2019-05-02T18:13:23.051Z,39.67
2019-05-02T18:15:53.454Z,40.50
2019-05-02T18:18:22.984Z,39.43
2019-05-02T18:20:52.956Z,39.90
2019-05-02T18:23:25.767Z,41.03
2019-05-02T18:25:57.462Z,38.70
2019-05-02T18:28:26.370Z,40.57
2019-05-02T18:30:57.169Z,38.27
2019-05-02T18:33:27.727Z,38.17
2019-05-02T18:35:57.464Z,36.63
2019-05-02T18:38:41.607Z,37.43
2019-05-02T18:41:37.234Z,36.03
2019-05-02T18:44:17.166Z,36.47
2019-05-02T18:46:51.869Z,35.73
2019-05-02T18:52:48.385Z,32.53
2019-05-02T18:55:23.210Z,34.03
2019-05-02T18:57:52.368Z,32.40
2019-05-02T19:00:22.915Z,35.60
2019-05-02T19:02:55.999Z,34.13
2019-05-02T19:05:29.262Z,33.90
2019-05-02T19:07:58.933Z,32.50
2019-05-02T19:10:28.250Z,35.50
2019-05-02T19:13:01.128Z,33.03
2019-05-02T19:15:34.686Z,33.90
2019-05-02T19:18:05.193Z,33.50
2019-05-02T19:20:57.532Z,33.17
2019-05-02T19:23:24.039Z,32.83
2019-05-02T19:25:53.400Z,34.00
2019-05-02T19:31:18.030Z,31.80
2019-05-02T19:34:11.730Z,32.47
2019-05-02T19:36:43.671Z,31.93
2019-05-02T19:39:13.096Z,32.53
2019-05-02T19:41:44.016Z,32.13
2019-05-02T19:44:15.322Z,29.67
2019-05-02T19:46:44.807Z,30.10
2019-05-02T19:49:37.321Z,29.97
2019-05-02T19:52:06.339Z,29.97
2019-05-02T19:54:47.102Z,30.53
2019-05-02T19:57:17.118Z,29.33
2019-05-02T19:59:47.587Z,30.03
2019-05-02T20:02:17.887Z,29.77
2019-05-02T20:04:47.205Z,29.20
2019-05-02T20:07:16.550Z,29.03
2019-05-02T20:09:47.361Z,29.00
2019-05-02T20:12:16.973Z,28.03
2019-05-02T20:14:47.596Z,28.20
2019-05-02T20:17:19.999Z,29.73
2019-05-02T20:19:49.808Z,27.60
2019-05-02T20:22:19.231Z,27.27
2019-05-02T20:25:00.261Z,30.43
2019-05-02T20:27:28.512Z,27.23
2019-05-02T20:29:58.294Z,19.83
2019-05-02T20:32:27.678Z,15.77
2019-05-02T20:34:56.989Z,12.70
2019-05-02T20:37:26.315Z,21.23
2019-05-02T20:39:55.655Z,14.50
2019-05-02T20:42:24.986Z,16.70
2019-05-02T20:44:54.302Z,9.87
2019-05-02T20:47:24.960Z,11.40
2019-05-02T20:49:54.258Z,9.20
2019-05-02T20:52:23.572Z,9.63
2019-05-02T20:54:52.869Z,11.07
2019-05-02T20:57:23.170Z,10.00
2019-05-02T20:59:52.697Z,7.30
2019-05-02T21:02:23.109Z,13.63
2019-05-02T21:04:52.422Z,7.40
2019-05-02T21:07:26.336Z,12.37
2019-05-02T21:10:09.358Z,6.90
2019-05-02T21:12:38.716Z,7.03
2019-05-02T21:15:08.465Z,7.93
2019-05-02T21:17:37.789Z,7.40
2019-05-02T21:20:07.632Z,10.70
2019-05-02T21:22:36.943Z,7.80
2019-05-02T21:25:07.882Z,7.87
2019-05-02T21:27:37.203Z,6.83
2019-05-02T21:30:09.584Z,7.80
2019-05-02T21:32:38.940Z,7.53
2019-05-02T21:35:08.396Z,6.17
2019-05-02T21:37:37.700Z,6.87
2019-05-02T21:40:07.301Z,6.53
2019-05-02T21:42:36.632Z,6.37
2019-05-02T21:45:06.324Z,5.30
2019-05-02T21:47:35.627Z,5.03
2019-05-02T21:50:12.342Z,5.37
2019-05-02T21:52:43.423Z,4.87
2019-05-02T21:55:17.622Z,5.13
2019-05-02T21:57:47.814Z,5.20
2019-05-02T22:00:32.763Z,4.70
2019-05-02T22:03:03.768Z,5.40
2019-05-02T22:05:33.147Z,5.20
2019-05-02T22:08:02.985Z,5.60
2019-05-02T22:10:32.353Z,5.30
2019-05-02T22:13:02.121Z,5.33
2019-05-02T22:15:32.503Z,5.63
2019-05-02T22:18:01.852Z,5.07
2019-05-02T22:20:32.096Z,5.47
2019-05-02T22:23:04.738Z,5.10
2019-05-02T22:25:34.064Z,5.60
2019-05-02T22:28:03.368Z,5.23
2019-05-02T22:30:32.708Z,4.90
2019-05-02T22:33:02.813Z,5.40
2019-05-02T22:35:32.284Z,5.47
2019-05-02T22:38:19.204Z,5.30
2019-05-02T22:40:50.158Z,4.73
2019-05-02T22:43:19.467Z,4.77
2019-05-02T22:45:48.771Z,4.70
2019-05-02T22:48:18.063Z,5.03
2019-05-02T22:50:48.353Z,4.77
2019-05-02T22:53:17.744Z,4.93
2019-05-02T22:55:47.043Z,4.30
2019-05-02T22:58:16.341Z,5.63
2019-05-02T23:00:45.725Z,5.20
2019-05-02T23:03:15.020Z,4.80
2019-05-02T23:05:44.407Z,5.23
2019-05-02T23:08:13.730Z,5.50
2019-05-02T23:10:43.050Z,5.63
2019-05-02T23:13:12.969Z,5.47
2019-05-02T23:15:43.358Z,6.37
2019-05-02T23:18:12.732Z,5.40
2019-05-02T23:20:42.223Z,6.03
2019-05-02T23:23:12.522Z,6.10
2019-05-02T23:25:47.575Z,6.10
2019-05-02T23:28:18.519Z,5.93
2019-05-02T23:30:47.833Z,6.37
2019-05-02T23:33:17.132Z,6.23
2019-05-02T23:35:46.444Z,6.43
2019-05-02T23:38:16.745Z,6.10
2019-05-02T23:40:46.060Z,6.30
2019-05-02T23:43:15.369Z,5.93
2019-05-02T23:45:44.718Z,6.90
2019-05-02T23:48:14.020Z,6.60
2019-05-02T23:50:43.348Z,6.73
2019-05-02T23:53:13.631Z,5.73
2019-05-02T23:55:44.017Z,6.83
2019-05-02T23:58:13.316Z,5.93
